sensor_id;sensor_type;location;lat;lon;timestamp;P1;durP1;ratioP1;P2;durP2;ratioP2
76814;SDS011;65768;49.906;19.384;2023-07-31T00:01:22;3.20;;;1.30;;
76814;SDS011;65768;49.906;19.384;2023-07-31T00:03:51;2.30;;;1.10;;
76814;SDS011;65768;49.906;19.384;2023-07-31T00:06:20;3.20;;;1.30;;
76814;SDS011;65768;49.906;19.384;2023-07-31T00:08:48;1.60;;;0.90;;
76814;SDS011;65768;49.906;19.384;2023-07-31T00:11:21;2.60;;;1.40;;
76814;SDS011;65768;49.906;19.384;2023-07-31T00:13:52;1.80;;;1.00;;
76814;SDS011;65768;49.906;19.384;2023-07-31T00:18:51;3.00;;;1.30;;
76814;SDS011;65768;49.906;19.384;2023-07-31T00:21:20;2.20;;;1.40;;
76814;SDS011;65768;49.906;19.384;2023-07-31T00:23:49;2.30;;;1.20;;
76814;SDS011;65768;49.906;19.384;2023-07-31T00:26:17;1.90;;;1.10;;
76814;SDS011;65768;49.906;19.384;2023-07-31T00:28:49;2.00;;;1.00;;
76814;SDS011;65768;49.906;19.384;2023-07-31T00:31:19;2.10;;;1.00;;
76814;SDS011;65768;49.906;19.384;2023-07-31T00:33:53;2.00;;;1.40;;
76814;SDS011;65768;49.906;19.384;2023-07-31T00:36:23;2.50;;;1.20;;
76814;SDS011;65768;49.906;19.384;2023-07-31T00:38:52;1.70;;;1.10;;
76814;SDS011;65768;49.906;19.384;2023-07-31T00:41:21;2.40;;;1.30;;
76814;SDS011;65768;49.906;19.384;2023-07-31T00:43:50;1.80;;;1.40;;
76814;SDS011;65768;49.906;19.384;2023-07-31T00:46:20;3.00;;;1.40;;
76814;SDS011;65768;49.906;19.384;2023-07-31T00:48:50;1.90;;;1.20;;
76814;SDS011;65768;49.906;19.384;2023-07-31T00:51:19;2.80;;;1.40;;
76814;SDS011;65768;49.906;19.384;2023-07-31T00:53:48;2.40;;;1.50;;
76814;SDS011;65768;49.906;19.384;2023-07-31T00:56:19;3.30;;;1.50;;
76814;SDS011;65768;49.906;19.384;2023-07-31T01:01:22;2.40;;;1.10;;
76814;SDS011;65768;49.906;19.384;2023-07-31T01:03:51;1.90;;;1.20;;
76814;SDS011;65768;49.906;19.384;2023-07-31T01:09:03;2.30;;;1.40;;
76814;SDS011;65768;49.906;19.384;2023-07-31T01:11:48;3.40;;;1.80;;
76814;SDS011;65768;49.906;19.384;2023-07-31T01:14:30;2.30;;;1.40;;
76814;SDS011;65768;49.906;19.384;2023-07-31T01:16:59;2.70;;;1.40;;
76814;SDS011;65768;49.906;19.384;2023-07-31T01:19:28;2.80;;;1.40;;
76814;SDS011;65768;49.906;19.384;2023-07-31T01:27:53;1.80;;;1.30;;
76814;SDS011;65768;49.906;19.384;2023-07-31T01:30:34;3.00;;;1.60;;
76814;SDS011;65768;49.906;19.384;2023-07-31T01:33:08;3.30;;;2.00;;
76814;SDS011;65768;49.906;19.384;2023-07-31T01:35:38;3.00;;;1.60;;
76814;SDS011;65768;49.906;19.384;2023-07-31T01:38:09;2.70;;;1.50;;
76814;SDS011;65768;49.906;19.384;2023-07-31T01:40:41;2.20;;;1.60;;
76814;SDS011;65768;49.906;19.384;2023-07-31T01:43:10;2.50;;;1.40;;
76814;SDS011;65768;49.906;19.384;2023-07-31T01:45:40;3.00;;;1.60;;
76814;SDS011;65768;49.906;19.384;2023-07-31T01:48:09;2.80;;;1.40;;
76814;SDS011;65768;49.906;19.384;2023-07-31T01:50:37;2.70;;;1.60;;
76814;SDS011;65768;49.906;19.384;2023-07-31T01:53:06;3.20;;;1.50;;
76814;SDS011;65768;49.906;19.384;2023-07-31T01:55:37;2.50;;;1.70;;
76814;SDS011;65768;49.906;19.384;2023-07-31T01:58:06;2.00;;;1.20;;
76814;SDS011;65768;49.906;19.384;2023-07-31T02:00:44;2.10;;;1.30;;
76814;SDS011;65768;49.906;19.384;2023-07-31T02:03:13;2.40;;;1.50;;
76814;SDS011;65768;49.906;19.384;2023-07-31T02:05:46;2.10;;;1.50;;
76814;SDS011;65768;49.906;19.384;2023-07-31T02:08:18;3.20;;;1.60;;
76814;SDS011;65768;49.906;19.384;2023-07-31T02:10:48;2.10;;;1.60;;
76814;SDS011;65768;49.906;19.384;2023-07-31T02:13:17;2.40;;;1.30;;
76814;SDS011;65768;49.906;19.384;2023-07-31T02:15:46;3.70;;;1.50;;
76814;SDS011;65768;49.906;19.384;2023-07-31T02:18:16;3.40;;;1.30;;
76814;SDS011;65768;49.906;19.384;2023-07-31T02:20:52;3.90;;;1.60;;
76814;SDS011;65768;49.906;19.384;2023-07-31T02:23:21;3.00;;;1.70;;
76814;SDS011;65768;49.906;19.384;2023-07-31T02:25:50;2.60;;;1.50;;
76814;SDS011;65768;49.906;19.384;2023-07-31T02:28:19;3.10;;;1.80;;
76814;SDS011;65768;49.906;19.384;2023-07-31T02:30:48;3.60;;;1.60;;
76814;SDS011;65768;49.906;19.384;2023-07-31T02:33:18;2.60;;;1.40;;
76814;SDS011;65768;49.906;19.384;2023-07-31T02:35:47;3.40;;;2.00;;
76814;SDS011;65768;49.906;19.384;2023-07-31T02:38:17;2.30;;;1.40;;
76814;SDS011;65768;49.906;19.384;2023-07-31T02:40:46;3.40;;;1.70;;
76814;SDS011;65768;49.906;19.384;2023-07-31T02:43:16;3.60;;;1.70;;
76814;SDS011;65768;49.906;19.384;2023-07-31T02:45:45;2.70;;;1.50;;
76814;SDS011;65768;49.906;19.384;2023-07-31T02:48:15;4.20;;;1.70;;
76814;SDS011;65768;49.906;19.384;2023-07-31T02:50:44;4.60;;;1.80;;
76814;SDS011;65768;49.906;19.384;2023-07-31T02:53:13;2.40;;;1.40;;
76814;SDS011;65768;49.906;19.384;2023-07-31T02:55:42;2.80;;;1.70;;
76814;SDS011;65768;49.906;19.384;2023-07-31T02:58:11;4.70;;;2.00;;
76814;SDS011;65768;49.906;19.384;2023-07-31T03:00:44;2.50;;;1.90;;
76814;SDS011;65768;49.906;19.384;2023-07-31T03:03:14;1.70;;;1.20;;
76814;SDS011;65768;49.906;19.384;2023-07-31T03:05:43;2.50;;;1.70;;
76814;SDS011;65768;49.906;19.384;2023-07-31T03:08:12;3.40;;;1.80;;
76814;SDS011;65768;49.906;19.384;2023-07-31T03:10:41;2.10;;;1.40;;
76814;SDS011;65768;49.906;19.384;2023-07-31T03:13:13;2.90;;;1.50;;
76814;SDS011;65768;49.906;19.384;2023-07-31T03:15:42;2.30;;;1.20;;
76814;SDS011;65768;49.906;19.384;2023-07-31T03:18:15;2.90;;;1.70;;
76814;SDS011;65768;49.906;19.384;2023-07-31T03:20:46;3.20;;;1.80;;
76814;SDS011;65768;49.906;19.384;2023-07-31T03:25:57;3.40;;;1.90;;
76814;SDS011;65768;49.906;19.384;2023-07-31T03:28:31;4.60;;;1.60;;
76814;SDS011;65768;49.906;19.384;2023-07-31T03:31:04;3.90;;;1.70;;
76814;SDS011;65768;49.906;19.384;2023-07-31T03:33:35;3.40;;;1.60;;
76814;SDS011;65768;49.906;19.384;2023-07-31T03:36:07;3.30;;;1.60;;
76814;SDS011;65768;49.906;19.384;2023-07-31T03:38:35;4.10;;;1.80;;
76814;SDS011;65768;49.906;19.384;2023-07-31T03:41:04;4.00;;;1.80;;
76814;SDS011;65768;49.906;19.384;2023-07-31T03:43:34;2.80;;;1.60;;
76814;SDS011;65768;49.906;19.384;2023-07-31T03:46:04;2.70;;;1.40;;
76814;SDS011;65768;49.906;19.384;2023-07-31T03:48:32;2.90;;;1.30;;
76814;SDS011;65768;49.906;19.384;2023-07-31T03:51:01;5.50;;;1.90;;
76814;SDS011;65768;49.906;19.384;2023-07-31T03:53:33;3.10;;;1.90;;
76814;SDS011;65768;49.906;19.384;2023-07-31T03:56:02;4.20;;;1.60;;
76814;SDS011;65768;49.906;19.384;2023-07-31T03:58:31;2.70;;;1.40;;
76814;SDS011;65768;49.906;19.384;2023-07-31T04:01:00;2.40;;;1.40;;
76814;SDS011;65768;49.906;19.384;2023-07-31T04:03:28;3.10;;;1.60;;
76814;SDS011;65768;49.906;19.384;2023-07-31T04:06:05;2.90;;;1.70;;
76814;SDS011;65768;49.906;19.384;2023-07-31T04:08:36;3.40;;;1.40;;
76814;SDS011;65768;49.906;19.384;2023-07-31T04:11:05;3.50;;;1.50;;
76814;SDS011;65768;49.906;19.384;2023-07-31T04:13:35;6.30;;;1.70;;
76814;SDS011;65768;49.906;19.384;2023-07-31T04:16:04;2.40;;;1.60;;
76814;SDS011;65768;49.906;19.384;2023-07-31T04:18:33;3.80;;;1.90;;
76814;SDS011;65768;49.906;19.384;2023-07-31T04:21:02;3.20;;;1.60;;
76814;SDS011;65768;49.906;19.384;2023-07-31T04:23:32;4.50;;;1.50;;
76814;SDS011;65768;49.906;19.384;2023-07-31T04:26:01;2.30;;;1.40;;
76814;SDS011;65768;49.906;19.384;2023-07-31T04:28:30;3.10;;;2.00;;
76814;SDS011;65768;49.906;19.384;2023-07-31T04:31:01;5.50;;;1.70;;
76814;SDS011;65768;49.906;19.384;2023-07-31T04:33:30;3.90;;;1.80;;
76814;SDS011;65768;49.906;19.384;2023-07-31T04:36:00;3.80;;;2.00;;
76814;SDS011;65768;49.906;19.384;2023-07-31T04:38:29;3.00;;;1.70;;
76814;SDS011;65768;49.906;19.384;2023-07-31T04:40:59;3.50;;;1.60;;
76814;SDS011;65768;49.906;19.384;2023-07-31T04:43:28;3.50;;;2.00;;
76814;SDS011;65768;49.906;19.384;2023-07-31T04:45:57;4.00;;;1.90;;
76814;SDS011;65768;49.906;19.384;2023-07-31T04:48:26;4.40;;;1.80;;
76814;SDS011;65768;49.906;19.384;2023-07-31T04:50:55;3.50;;;1.90;;
76814;SDS011;65768;49.906;19.384;2023-07-31T04:53:26;2.80;;;1.70;;
76814;SDS011;65768;49.906;19.384;2023-07-31T04:55:55;5.10;;;2.40;;
76814;SDS011;65768;49.906;19.384;2023-07-31T04:58:24;2.90;;;1.50;;
76814;SDS011;65768;49.906;19.384;2023-07-31T05:00:53;8.70;;;4.40;;
76814;SDS011;65768;49.906;19.384;2023-07-31T05:03:22;8.80;;;4.10;;
76814;SDS011;65768;49.906;19.384;2023-07-31T05:05:51;5.30;;;2.90;;
76814;SDS011;65768;49.906;19.384;2023-07-31T05:08:20;4.50;;;2.30;;
76814;SDS011;65768;49.906;19.384;2023-07-31T05:10:53;4.30;;;2.40;;
76814;SDS011;65768;49.906;19.384;2023-07-31T05:13:23;4.60;;;2.20;;
76814;SDS011;65768;49.906;19.384;2023-07-31T05:15:52;5.70;;;2.30;;
76814;SDS011;65768;49.906;19.384;2023-07-31T05:18:21;6.90;;;2.50;;
76814;SDS011;65768;49.906;19.384;2023-07-31T05:20:50;5.00;;;2.20;;
76814;SDS011;65768;49.906;19.384;2023-07-31T05:23:21;6.00;;;2.50;;
76814;SDS011;65768;49.906;19.384;2023-07-31T05:25:50;4.20;;;2.30;;
76814;SDS011;65768;49.906;19.384;2023-07-31T05:28:20;3.20;;;2.00;;
76814;SDS011;65768;49.906;19.384;2023-07-31T05:30:50;6.30;;;2.20;;
76814;SDS011;65768;49.906;19.384;2023-07-31T05:33:18;5.80;;;2.40;;
76814;SDS011;65768;49.906;19.384;2023-07-31T05:35:48;4.30;;;2.10;;
76814;SDS011;65768;49.906;19.384;2023-07-31T05:38:17;4.10;;;2.40;;
76814;SDS011;65768;49.906;19.384;2023-07-31T05:40:47;4.40;;;2.20;;
76814;SDS011;65768;49.906;19.384;2023-07-31T05:43:16;5.80;;;2.40;;
76814;SDS011;65768;49.906;19.384;2023-07-31T05:45:45;3.50;;;2.00;;
76814;SDS011;65768;49.906;19.384;2023-07-31T05:48:14;5.30;;;2.20;;
76814;SDS011;65768;49.906;19.384;2023-07-31T05:50:43;3.20;;;2.10;;
76814;SDS011;65768;49.906;19.384;2023-07-31T05:53:12;5.10;;;2.20;;
76814;SDS011;65768;49.906;19.384;2023-07-31T05:55:40;4.50;;;2.10;;
76814;SDS011;65768;49.906;19.384;2023-07-31T05:58:11;7.90;;;2.20;;
76814;SDS011;65768;49.906;19.384;2023-07-31T06:00:41;4.30;;;1.90;;
76814;SDS011;65768;49.906;19.384;2023-07-31T06:03:12;4.40;;;1.80;;
76814;SDS011;65768;49.906;19.384;2023-07-31T06:05:42;3.60;;;2.20;;
76814;SDS011;65768;49.906;19.384;2023-07-31T06:08:11;3.60;;;2.00;;
76814;SDS011;65768;49.906;19.384;2023-07-31T06:10:42;4.00;;;1.80;;
76814;SDS011;65768;49.906;19.384;2023-07-31T06:13:11;5.20;;;1.90;;
76814;SDS011;65768;49.906;19.384;2023-07-31T06:15:41;3.80;;;1.80;;
76814;SDS011;65768;49.906;19.384;2023-07-31T06:18:10;5.40;;;1.80;;
76814;SDS011;65768;49.906;19.384;2023-07-31T06:20:39;4.80;;;2.10;;
76814;SDS011;65768;49.906;19.384;2023-07-31T06:23:09;6.20;;;2.10;;
76814;SDS011;65768;49.906;19.384;2023-07-31T06:25:38;3.70;;;2.10;;
76814;SDS011;65768;49.906;19.384;2023-07-31T06:28:07;3.80;;;2.60;;
76814;SDS011;65768;49.906;19.384;2023-07-31T06:30:37;4.80;;;2.10;;
76814;SDS011;65768;49.906;19.384;2023-07-31T06:33:06;2.90;;;1.50;;
76814;SDS011;65768;49.906;19.384;2023-07-31T06:35:35;4.70;;;1.80;;
76814;SDS011;65768;49.906;19.384;2023-07-31T06:38:04;3.70;;;1.60;;
76814;SDS011;65768;49.906;19.384;2023-07-31T06:40:32;3.40;;;1.50;;
76814;SDS011;65768;49.906;19.384;2023-07-31T06:43:03;3.60;;;1.40;;
76814;SDS011;65768;49.906;19.384;2023-07-31T06:45:39;3.20;;;1.60;;
76814;SDS011;65768;49.906;19.384;2023-07-31T06:48:09;5.20;;;1.80;;
76814;SDS011;65768;49.906;19.384;2023-07-31T06:50:38;2.80;;;1.40;;
76814;SDS011;65768;49.906;19.384;2023-07-31T06:53:11;5.10;;;1.90;;
76814;SDS011;65768;49.906;19.384;2023-07-31T06:55:40;3.90;;;1.80;;
76814;SDS011;65768;49.906;19.384;2023-07-31T06:58:30;12.80;;;6.40;;
76814;SDS011;65768;49.906;19.384;2023-07-31T07:00:59;8.20;;;4.20;;
76814;SDS011;65768;49.906;19.384;2023-07-31T07:03:28;6.00;;;4.30;;
76814;SDS011;65768;49.906;19.384;2023-07-31T07:05:57;8.50;;;6.20;;
76814;SDS011;65768;49.906;19.384;2023-07-31T07:08:26;4.60;;;2.90;;
76814;SDS011;65768;49.906;19.384;2023-07-31T07:10:56;4.10;;;1.90;;
76814;SDS011;65768;49.906;19.384;2023-07-31T07:13:25;5.30;;;2.00;;
76814;SDS011;65768;49.906;19.384;2023-07-31T07:15:55;4.90;;;1.90;;
76814;SDS011;65768;49.906;19.384;2023-07-31T07:18:25;4.50;;;1.70;;
76814;SDS011;65768;49.906;19.384;2023-07-31T07:20:55;5.90;;;1.50;;
76814;SDS011;65768;49.906;19.384;2023-07-31T07:23:26;2.90;;;1.60;;
76814;SDS011;65768;49.906;19.384;2023-07-31T07:25:55;3.20;;;2.00;;
76814;SDS011;65768;49.906;19.384;2023-07-31T07:28:27;5.30;;;2.10;;
76814;SDS011;65768;49.906;19.384;2023-07-31T07:30:57;6.50;;;2.10;;
76814;SDS011;65768;49.906;19.384;2023-07-31T07:33:26;3.70;;;1.80;;
76814;SDS011;65768;49.906;19.384;2023-07-31T07:36:00;3.00;;;1.60;;
76814;SDS011;65768;49.906;19.384;2023-07-31T07:38:31;3.10;;;1.50;;
76814;SDS011;65768;49.906;19.384;2023-07-31T07:40:59;3.60;;;1.50;;
76814;SDS011;65768;49.906;19.384;2023-07-31T07:43:29;2.80;;;1.40;;
76814;SDS011;65768;49.906;19.384;2023-07-31T07:45:57;2.70;;;1.50;;
76814;SDS011;65768;49.906;19.384;2023-07-31T07:48:26;4.30;;;1.70;;
76814;SDS011;65768;49.906;19.384;2023-07-31T07:50:55;2.40;;;1.30;;
76814;SDS011;65768;49.906;19.384;2023-07-31T07:53:25;3.20;;;1.30;;
76814;SDS011;65768;49.906;19.384;2023-07-31T07:55:54;4.20;;;1.70;;
76814;SDS011;65768;49.906;19.384;2023-07-31T07:58:23;5.00;;;1.70;;
76814;SDS011;65768;49.906;19.384;2023-07-31T08:00:52;7.30;;;1.60;;
76814;SDS011;65768;49.906;19.384;2023-07-31T08:03:22;4.80;;;2.10;;
76814;SDS011;65768;49.906;19.384;2023-07-31T08:05:51;3.80;;;1.50;;
76814;SDS011;65768;49.906;19.384;2023-07-31T08:08:20;2.60;;;1.50;;
76814;SDS011;65768;49.906;19.384;2023-07-31T08:10:48;3.60;;;1.50;;
76814;SDS011;65768;49.906;19.384;2023-07-31T08:13:21;2.60;;;1.80;;
76814;SDS011;65768;49.906;19.384;2023-07-31T08:15:50;2.90;;;1.70;;
76814;SDS011;65768;49.906;19.384;2023-07-31T08:18:19;4.60;;;1.80;;
76814;SDS011;65768;49.906;19.384;2023-07-31T08:20:48;4.80;;;1.80;;
76814;SDS011;65768;49.906;19.384;2023-07-31T08:23:20;3.50;;;1.40;;
76814;SDS011;65768;49.906;19.384;2023-07-31T08:25:51;3.20;;;1.10;;
76814;SDS011;65768;49.906;19.384;2023-07-31T08:28:21;4.00;;;1.40;;
76814;SDS011;65768;49.906;19.384;2023-07-31T08:30:50;3.30;;;1.30;;
76814;SDS011;65768;49.906;19.384;2023-07-31T08:33:19;4.50;;;1.60;;
76814;SDS011;65768;49.906;19.384;2023-07-31T08:35:49;3.30;;;1.50;;
76814;SDS011;65768;49.906;19.384;2023-07-31T08:38:18;3.40;;;1.60;;
76814;SDS011;65768;49.906;19.384;2023-07-31T08:40:46;3.10;;;1.40;;
76814;SDS011;65768;49.906;19.384;2023-07-31T08:43:16;3.80;;;1.40;;
76814;SDS011;65768;49.906;19.384;2023-07-31T08:45:46;5.10;;;2.00;;
76814;SDS011;65768;49.906;19.384;2023-07-31T08:48:16;4.70;;;1.90;;
76814;SDS011;65768;49.906;19.384;2023-07-31T08:50:46;3.70;;;1.20;;
76814;SDS011;65768;49.906;19.384;2023-07-31T08:53:16;2.90;;;1.30;;
76814;SDS011;65768;49.906;19.384;2023-07-31T08:55:46;2.60;;;1.40;;
76814;SDS011;65768;49.906;19.384;2023-07-31T09:00:48;3.20;;;1.30;;
76814;SDS011;65768;49.906;19.384;2023-07-31T09:03:19;3.40;;;1.30;;
76814;SDS011;65768;49.906;19.384;2023-07-31T09:05:50;4.60;;;1.50;;
76814;SDS011;65768;49.906;19.384;2023-07-31T09:08:20;2.90;;;1.20;;
76814;SDS011;65768;49.906;19.384;2023-07-31T09:10:50;2.70;;;1.20;;
76814;SDS011;65768;49.906;19.384;2023-07-31T09:13:19;5.80;;;1.70;;
76814;SDS011;65768;49.906;19.384;2023-07-31T09:15:50;3.40;;;1.10;;
76814;SDS011;65768;49.906;19.384;2023-07-31T09:18:20;3.10;;;1.30;;
76814;SDS011;65768;49.906;19.384;2023-07-31T09:21:04;3.20;;;1.20;;
76814;SDS011;65768;49.906;19.384;2023-07-31T09:23:46;2.40;;;1.20;;
76814;SDS011;65768;49.906;19.384;2023-07-31T09:26:31;2.10;;;1.40;;
76814;SDS011;65768;49.906;19.384;2023-07-31T09:29:07;4.40;;;1.30;;
76814;SDS011;65768;49.906;19.384;2023-07-31T09:31:47;4.60;;;1.30;;
76814;SDS011;65768;49.906;19.384;2023-07-31T09:34:16;2.60;;;1.20;;
76814;SDS011;65768;49.906;19.384;2023-07-31T09:36:49;3.70;;;1.70;;
76814;SDS011;65768;49.906;19.384;2023-07-31T09:39:19;2.70;;;1.30;;
76814;SDS011;65768;49.906;19.384;2023-07-31T09:41:55;4.10;;;1.40;;
76814;SDS011;65768;49.906;19.384;2023-07-31T09:44:41;4.20;;;1.80;;
76814;SDS011;65768;49.906;19.384;2023-07-31T09:47:22;2.40;;;1.20;;
76814;SDS011;65768;49.906;19.384;2023-07-31T09:49:54;3.70;;;1.20;;
76814;SDS011;65768;49.906;19.384;2023-07-31T09:52:25;2.10;;;1.10;;
76814;SDS011;65768;49.906;19.384;2023-07-31T09:54:55;3.90;;;1.80;;
76814;SDS011;65768;49.906;19.384;2023-07-31T09:57:24;5.00;;;1.60;;
76814;SDS011;65768;49.906;19.384;2023-07-31T09:59:54;5.20;;;1.40;;
76814;SDS011;65768;49.906;19.384;2023-07-31T10:02:24;2.80;;;1.50;;
76814;SDS011;65768;49.906;19.384;2023-07-31T10:04:57;4.60;;;1.40;;
76814;SDS011;65768;49.906;19.384;2023-07-31T10:07:30;3.50;;;1.40;;
76814;SDS011;65768;49.906;19.384;2023-07-31T10:10:02;3.10;;;1.10;;
76814;SDS011;65768;49.906;19.384;2023-07-31T10:12:33;6.60;;;1.70;;
76814;SDS011;65768;49.906;19.384;2023-07-31T10:15:03;5.20;;;1.50;;
76814;SDS011;65768;49.906;19.384;2023-07-31T10:17:33;3.80;;;1.20;;
76814;SDS011;65768;49.906;19.384;2023-07-31T10:20:06;4.10;;;1.60;;
76814;SDS011;65768;49.906;19.384;2023-07-31T10:22:36;3.70;;;1.30;;
76814;SDS011;65768;49.906;19.384;2023-07-31T10:25:07;4.10;;;1.40;;
76814;SDS011;65768;49.906;19.384;2023-07-31T10:27:40;3.00;;;1.10;;
76814;SDS011;65768;49.906;19.384;2023-07-31T10:30:15;8.50;;;1.60;;
76814;SDS011;65768;49.906;19.384;2023-07-31T10:32:50;2.90;;;1.60;;
76814;SDS011;65768;49.906;19.384;2023-07-31T10:35:19;2.80;;;1.40;;
76814;SDS011;65768;49.906;19.384;2023-07-31T10:37:50;3.50;;;1.80;;
76814;SDS011;65768;49.906;19.384;2023-07-31T10:40:24;3.50;;;1.50;;
76814;SDS011;65768;49.906;19.384;2023-07-31T10:42:57;4.80;;;1.60;;
76814;SDS011;65768;49.906;19.384;2023-07-31T10:48:07;3.10;;;1.40;;
76814;SDS011;65768;49.906;19.384;2023-07-31T10:50:56;2.40;;;1.30;;
76814;SDS011;65768;49.906;19.384;2023-07-31T10:53:26;1.90;;;1.20;;
76814;SDS011;65768;49.906;19.384;2023-07-31T10:56:07;2.90;;;1.70;;
76814;SDS011;65768;49.906;19.384;2023-07-31T10:58:39;2.90;;;1.40;;
76814;SDS011;65768;49.906;19.384;2023-07-31T11:01:12;5.10;;;1.80;;
76814;SDS011;65768;49.906;19.384;2023-07-31T11:03:42;2.40;;;1.00;;
76814;SDS011;65768;49.906;19.384;2023-07-31T11:06:16;3.20;;;1.50;;
76814;SDS011;65768;49.906;19.384;2023-07-31T11:08:45;4.40;;;1.80;;
76814;SDS011;65768;49.906;19.384;2023-07-31T11:11:19;3.90;;;1.30;;
76814;SDS011;65768;49.906;19.384;2023-07-31T11:13:49;2.60;;;1.30;;
76814;SDS011;65768;49.906;19.384;2023-07-31T11:16:21;2.80;;;1.60;;
76814;SDS011;65768;49.906;19.384;2023-07-31T11:18:53;7.20;;;1.60;;
76814;SDS011;65768;49.906;19.384;2023-07-31T11:21:24;2.80;;;1.30;;
76814;SDS011;65768;49.906;19.384;2023-07-31T11:23:57;3.50;;;1.60;;
76814;SDS011;65768;49.906;19.384;2023-07-31T11:26:27;2.60;;;1.50;;
76814;SDS011;65768;49.906;19.384;2023-07-31T11:28:56;3.60;;;1.40;;
76814;SDS011;65768;49.906;19.384;2023-07-31T11:31:25;2.70;;;1.50;;
76814;SDS011;65768;49.906;19.384;2023-07-31T11:34:04;2.50;;;1.10;;
76814;SDS011;65768;49.906;19.384;2023-07-31T11:36:34;4.00;;;1.00;;
76814;SDS011;65768;49.906;19.384;2023-07-31T11:39:05;1.90;;;1.30;;
76814;SDS011;65768;49.906;19.384;2023-07-31T11:41:40;3.60;;;1.40;;
76814;SDS011;65768;49.906;19.384;2023-07-31T11:44:11;3.50;;;1.20;;
76814;SDS011;65768;49.906;19.384;2023-07-31T11:46:42;2.10;;;1.30;;
76814;SDS011;65768;49.906;19.384;2023-07-31T11:49:12;2.70;;;1.30;;
76814;SDS011;65768;49.906;19.384;2023-07-31T11:51:44;4.70;;;1.60;;
76814;SDS011;65768;49.906;19.384;2023-07-31T11:54:16;3.20;;;1.20;;
76814;SDS011;65768;49.906;19.384;2023-07-31T11:56:46;1.70;;;1.10;;
76814;SDS011;65768;49.906;19.384;2023-07-31T11:59:16;2.00;;;1.30;;
76814;SDS011;65768;49.906;19.384;2023-07-31T12:01:46;4.10;;;1.40;;
76814;SDS011;65768;49.906;19.384;2023-07-31T12:04:18;4.70;;;1.30;;
76814;SDS011;65768;49.906;19.384;2023-07-31T12:06:48;4.00;;;1.30;;
76814;SDS011;65768;49.906;19.384;2023-07-31T12:09:19;2.30;;;1.10;;
76814;SDS011;65768;49.906;19.384;2023-07-31T12:11:49;3.60;;;1.10;;
76814;SDS011;65768;49.906;19.384;2023-07-31T12:14:21;3.30;;;1.20;;
76814;SDS011;65768;49.906;19.384;2023-07-31T12:16:58;2.70;;;0.90;;
76814;SDS011;65768;49.906;19.384;2023-07-31T12:19:28;3.60;;;1.20;;
76814;SDS011;65768;49.906;19.384;2023-07-31T12:21:58;3.00;;;1.00;;
76814;SDS011;65768;49.906;19.384;2023-07-31T12:24:27;3.40;;;1.60;;
76814;SDS011;65768;49.906;19.384;2023-07-31T12:26:58;3.40;;;1.70;;
76814;SDS011;65768;49.906;19.384;2023-07-31T12:29:36;3.30;;;1.40;;
76814;SDS011;65768;49.906;19.384;2023-07-31T12:32:17;2.10;;;1.10;;
76814;SDS011;65768;49.906;19.384;2023-07-31T12:34:51;4.50;;;1.60;;
76814;SDS011;65768;49.906;19.384;2023-07-31T12:37:20;3.50;;;1.20;;
76814;SDS011;65768;49.906;19.384;2023-07-31T12:39:51;3.30;;;1.00;;
76814;SDS011;65768;49.906;19.384;2023-07-31T12:42:19;3.80;;;1.30;;
76814;SDS011;65768;49.906;19.384;2023-07-31T12:44:48;2.60;;;1.30;;
76814;SDS011;65768;49.906;19.384;2023-07-31T12:47:17;2.10;;;1.10;;
76814;SDS011;65768;49.906;19.384;2023-07-31T12:49:46;2.50;;;1.20;;
76814;SDS011;65768;49.906;19.384;2023-07-31T12:52:14;3.30;;;1.10;;
76814;SDS011;65768;49.906;19.384;2023-07-31T12:54:43;5.10;;;1.50;;
76814;SDS011;65768;49.906;19.384;2023-07-31T12:57:12;4.30;;;1.70;;
76814;SDS011;65768;49.906;19.384;2023-07-31T12:59:40;2.10;;;1.00;;
76814;SDS011;65768;49.906;19.384;2023-07-31T13:02:08;3.80;;;1.70;;
76814;SDS011;65768;49.906;19.384;2023-07-31T13:04:38;2.90;;;1.60;;
76814;SDS011;65768;49.906;19.384;2023-07-31T13:07:06;2.40;;;1.20;;
76814;SDS011;65768;49.906;19.384;2023-07-31T13:09:35;4.60;;;1.60;;
76814;SDS011;65768;49.906;19.384;2023-07-31T13:12:04;4.70;;;1.90;;
76814;SDS011;65768;49.906;19.384;2023-07-31T13:14:33;3.50;;;1.20;;
76814;SDS011;65768;49.906;19.384;2023-07-31T13:17:02;4.00;;;1.20;;
76814;SDS011;65768;49.906;19.384;2023-07-31T13:19:31;2.40;;;1.10;;
76814;SDS011;65768;49.906;19.384;2023-07-31T13:21:59;2.50;;;1.20;;
76814;SDS011;65768;49.906;19.384;2023-07-31T13:24:28;3.90;;;1.20;;
76814;SDS011;65768;49.906;19.384;2023-07-31T13:26:57;3.20;;;1.30;;
76814;SDS011;65768;49.906;19.384;2023-07-31T13:29:29;3.60;;;1.00;;
76814;SDS011;65768;49.906;19.384;2023-07-31T13:32:01;2.30;;;1.00;;
76814;SDS011;65768;49.906;19.384;2023-07-31T13:34:31;5.80;;;2.00;;
76814;SDS011;65768;49.906;19.384;2023-07-31T13:37:01;6.00;;;1.20;;
76814;SDS011;65768;49.906;19.384;2023-07-31T13:39:30;3.00;;;1.20;;
76814;SDS011;65768;49.906;19.384;2023-07-31T13:41:59;3.00;;;1.50;;
76814;SDS011;65768;49.906;19.384;2023-07-31T13:44:28;3.20;;;1.00;;
76814;SDS011;65768;49.906;19.384;2023-07-31T13:46:58;2.50;;;0.90;;
76814;SDS011;65768;49.906;19.384;2023-07-31T13:49:27;2.80;;;1.40;;
76814;SDS011;65768;49.906;19.384;2023-07-31T13:51:58;2.30;;;1.20;;
76814;SDS011;65768;49.906;19.384;2023-07-31T13:54:28;3.00;;;1.00;;
76814;SDS011;65768;49.906;19.384;2023-07-31T13:56:57;1.80;;;0.90;;
76814;SDS011;65768;49.906;19.384;2023-07-31T13:59:26;2.90;;;1.10;;
76814;SDS011;65768;49.906;19.384;2023-07-31T14:01:55;4.80;;;1.20;;
76814;SDS011;65768;49.906;19.384;2023-07-31T14:04:25;2.80;;;1.10;;
76814;SDS011;65768;49.906;19.384;2023-07-31T14:06:54;3.10;;;1.30;;
76814;SDS011;65768;49.906;19.384;2023-07-31T14:09:24;2.80;;;1.20;;
76814;SDS011;65768;49.906;19.384;2023-07-31T14:11:53;3.70;;;1.10;;
76814;SDS011;65768;49.906;19.384;2023-07-31T14:14:21;4.70;;;1.20;;
76814;SDS011;65768;49.906;19.384;2023-07-31T14:16:49;2.30;;;1.00;;
76814;SDS011;65768;49.906;19.384;2023-07-31T14:19:17;1.80;;;0.80;;
76814;SDS011;65768;49.906;19.384;2023-07-31T14:21:47;2.80;;;1.10;;
76814;SDS011;65768;49.906;19.384;2023-07-31T14:24:15;5.40;;;1.20;;
76814;SDS011;65768;49.906;19.384;2023-07-31T14:26:45;3.30;;;1.00;;
76814;SDS011;65768;49.906;19.384;2023-07-31T14:29:14;3.90;;;1.50;;
76814;SDS011;65768;49.906;19.384;2023-07-31T14:31:43;2.20;;;1.00;;
76814;SDS011;65768;49.906;19.384;2023-07-31T14:34:13;2.50;;;1.10;;
76814;SDS011;65768;49.906;19.384;2023-07-31T14:36:44;1.60;;;0.80;;
76814;SDS011;65768;49.906;19.384;2023-07-31T14:39:14;4.20;;;1.10;;
76814;SDS011;65768;49.906;19.384;2023-07-31T14:41:43;2.70;;;1.10;;
76814;SDS011;65768;49.906;19.384;2023-07-31T14:44:11;6.50;;;1.40;;
76814;SDS011;65768;49.906;19.384;2023-07-31T14:46:40;1.80;;;1.00;;
76814;SDS011;65768;49.906;19.384;2023-07-31T14:49:08;3.00;;;1.20;;
76814;SDS011;65768;49.906;19.384;2023-07-31T14:51:36;4.10;;;1.40;;
76814;SDS011;65768;49.906;19.384;2023-07-31T14:54:05;2.80;;;1.00;;
76814;SDS011;65768;49.906;19.384;2023-07-31T14:56:34;3.60;;;1.10;;
76814;SDS011;65768;49.906;19.384;2023-07-31T14:59:03;2.70;;;1.20;;
76814;SDS011;65768;49.906;19.384;2023-07-31T15:01:32;3.80;;;1.60;;
76814;SDS011;65768;49.906;19.384;2023-07-31T15:04:01;2.80;;;1.50;;
76814;SDS011;65768;49.906;19.384;2023-07-31T15:06:30;3.00;;;1.30;;
76814;SDS011;65768;49.906;19.384;2023-07-31T15:08:58;4.30;;;1.30;;
76814;SDS011;65768;49.906;19.384;2023-07-31T15:11:28;3.00;;;1.30;;
76814;SDS011;65768;49.906;19.384;2023-07-31T15:13:57;3.00;;;1.60;;